sensor_id;sensor_type;location;lat;lon;timestamp;pressure;altitude;pressure_sealevel;temperature;humidity
74905;BME280;63465;50.862;6.220;2024-02-21T07:12:30;100260.19;;;19.25;100.00
74905;BME280;63465;50.862;6.220;2024-02-21T07:14:56;100276.47;;;19.40;100.00
74905;BME280;63465;50.862;6.220;2024-02-21T07:17:21;100267.84;;;19.56;100.00
74905;BME280;63465;50.862;6.220;2024-02-21T07:19:46;100266.41;;;19.62;100.00
74905;BME280;63465;50.862;6.220;2024-02-21T07:22:12;100267.09;;;19.64;100.00
74905;BME280;63465;50.862;6.220;2024-02-21T07:24:37;100270.78;;;19.88;100.00
74905;BME280;63465;50.862;6.220;2024-02-21T07:27:03;100268.28;;;19.87;100.00
74905;BME280;63465;50.862;6.220;2024-02-21T07:29:30;100265.31;;;19.90;100.00
74905;BME280;63465;50.862;6.220;2024-02-21T07:31:55;100270.53;;;20.00;100.00
74905;BME280;63465;50.862;6.220;2024-02-21T07:34:20;100261.47;;;20.10;100.00
74905;BME280;63465;50.862;6.220;2024-02-21T07:36:46;100261.19;;;20.21;100.00
74905;BME280;63465;50.862;6.220;2024-02-21T07:39:11;100248.59;;;20.32;100.00
74905;BME280;63465;50.862;6.220;2024-02-21T07:41:37;100252.47;;;20.37;100.00
74905;BME280;63465;50.862;6.220;2024-02-21T07:44:04;100248.72;;;20.48;100.00
74905;BME280;63465;50.862;6.220;2024-02-21T07:46:29;100251.06;;;20.51;100.00
74905;BME280;63465;50.862;6.220;2024-02-21T07:48:55;100244.56;;;20.45;100.00
74905;BME280;63465;50.862;6.220;2024-02-21T07:51:20;100238.06;;;20.48;100.00
74905;BME280;63465;50.862;6.220;2024-02-21T07:53:45;100237.28;;;20.55;100.00
74905;BME280;63465;50.862;6.220;2024-02-21T07:56:15;100233.66;;;20.65;100.00
74905;BME280;63465;50.862;6.220;2024-02-21T07:58:43;100229.53;;;20.78;99.00
74905;BME280;63465;50.862;6.220;2024-02-21T08:01:08;100218.03;;;20.78;98.59
74905;BME280;63465;50.862;6.220;2024-02-21T08:03:34;100223.69;;;20.75;98.14
74905;BME280;63465;50.862;6.220;2024-02-21T08:05:59;100215.03;;;20.73;98.16
74905;BME280;63465;50.862;6.220;2024-02-21T08:08:25;100207.38;;;20.78;98.40
74905;BME280;63465;50.862;6.220;2024-02-21T08:10:52;100195.72;;;20.79;98.29
74905;BME280;63465;50.862;6.220;2024-02-21T08:13:17;100202.59;;;20.90;98.68
74905;BME280;63465;50.862;6.220;2024-02-21T08:15:43;100193.59;;;20.91;100.00
74905;BME280;63465;50.862;6.220;2024-02-21T08:18:08;100185.16;;;21.11;100.00
74905;BME280;63465;50.862;6.220;2024-02-21T08:20:34;100176.50;;;21.17;100.00
74905;BME280;63465;50.862;6.220;2024-02-21T08:22:59;100168.81;;;21.06;100.00
74905;BME280;63465;50.862;6.220;2024-02-21T08:25:25;100165.81;;;21.17;100.00
74905;BME280;63465;50.862;6.220;2024-02-21T08:27:50;100165.13;;;21.07;100.00
74905;BME280;63465;50.862;6.220;2024-02-21T08:30:16;100161.47;;;21.08;100.00
74905;BME280;63465;50.862;6.220;2024-02-21T08:32:42;100155.81;;;21.11;100.00
74905;BME280;63465;50.862;6.220;2024-02-21T08:35:08;100153.81;;;21.05;100.00
74905;BME280;63465;50.862;6.220;2024-02-21T08:37:33;100146.31;;;21.09;100.00
74905;BME280;63465;50.862;6.220;2024-02-21T08:39:58;100144.31;;;21.11;100.00
74905;BME280;63465;50.862;6.220;2024-02-21T08:42:23;100140.13;;;21.08;100.00
74905;BME280;63465;50.862;6.220;2024-02-21T08:44:49;100131.28;;;21.00;100.00
74905;BME280;63465;50.862;6.220;2024-02-21T08:47:14;100131.28;;;20.92;100.00
74905;BME280;63465;50.862;6.220;2024-02-21T08:49:39;100118.78;;;20.92;100.00
74905;BME280;63465;50.862;6.220;2024-02-21T08:52:05;100119.28;;;21.04;100.00
74905;BME280;63465;50.862;6.220;2024-02-21T08:54:33;100125.63;;;21.03;100.00
74905;BME280;63465;50.862;6.220;2024-02-21T08:56:59;100114.94;;;20.95;100.00
74905;BME280;63465;50.862;6.220;2024-02-21T08:59:24;100100.97;;;21.01;100.00
74905;BME280;63465;50.862;6.220;2024-02-21T09:01:51;100105.78;;;21.05;100.00
74905;BME280;63465;50.862;6.220;2024-02-21T09:04:17;100102.78;;;21.00;100.00
74905;BME280;63465;50.862;6.220;2024-02-21T09:06:42;100093.44;;;20.96;100.00
74905;BME280;63465;50.862;6.220;2024-02-21T09:09:08;100084.78;;;20.94;100.00
74905;BME280;63465;50.862;6.220;2024-02-21T09:11:35;100081.28;;;20.94;100.00
74905;BME280;63465;50.862;6.220;2024-02-21T09:14:00;100072.63;;;21.00;100.00
74905;BME280;63465;50.862;6.220;2024-02-21T09:16:25;100067.28;;;21.00;100.00
74905;BME280;63465;50.862;6.220;2024-02-21T09:18:51;100061.28;;;20.98;100.00
74905;BME280;63465;50.862;6.220;2024-02-21T09:21:18;100057.94;;;20.96;100.00
74905;BME280;63465;50.862;6.220;2024-02-21T09:23:43;100058.78;;;20.88;100.00
74905;BME280;63465;50.862;6.220;2024-02-21T09:26:09;100045.94;;;20.83;100.00
74905;BME280;63465;50.862;6.220;2024-02-21T09:28:38;100044.47;;;20.89;100.00
74905;BME280;63465;50.862;6.220;2024-02-21T09:31:04;100048.94;;;20.80;100.00
74905;BME280;63465;50.862;6.220;2024-02-21T09:33:29;100050.13;;;20.86;100.00
74905;BME280;63465;50.862;6.220;2024-02-21T09:35:54;100048.63;;;20.83;100.00
74905;BME280;63465;50.862;6.220;2024-02-21T09:38:20;100044.63;;;20.88;100.00
74905;BME280;63465;50.862;6.220;2024-02-21T09:40:46;100046.78;;;20.84;100.00
74905;BME280;63465;50.862;6.220;2024-02-21T09:43:17;100034.13;;;20.86;100.00
74905;BME280;63465;50.862;6.220;2024-02-21T09:45:45;100038.13;;;20.82;100.00
74905;BME280;63465;50.862;6.220;2024-02-21T09:50:49;100031.78;;;20.83;100.00
74905;BME280;63465;50.862;6.220;2024-02-21T09:53:15;100026.63;;;20.81;100.00
74905;BME280;63465;50.862;6.220;2024-02-21T09:55:41;100033.13;;;20.87;100.00
74905;BME280;63465;50.862;6.220;2024-02-21T09:58:08;100036.59;;;20.79;100.00
74905;BME280;63465;50.862;6.220;2024-02-21T10:00:35;100028.25;;;20.74;100.00
74905;BME280;63465;50.862;6.220;2024-02-21T10:03:01;100028.91;;;20.68;100.00
74905;BME280;63465;50.862;6.220;2024-02-21T10:05:26;100028.41;;;20.73;100.00
74905;BME280;63465;50.862;6.220;2024-02-21T10:07:52;100030.09;;;20.74;100.00
74905;BME280;63465;50.862;6.220;2024-02-21T10:10:18;100015.94;;;20.73;100.00
74905;BME280;63465;50.862;6.220;2024-02-21T10:12:52;100018.25;;;20.76;100.00
74905;BME280;63465;50.862;6.220;2024-02-21T10:15:24;100007.59;;;20.76;100.00
74905;BME280;63465;50.862;6.220;2024-02-21T10:17:57;100004.47;;;20.81;100.00
74905;BME280;63465;50.862;6.220;2024-02-21T10:20:23;100000.09;;;20.72;100.00
74905;BME280;63465;50.862;6.220;2024-02-21T10:22:48;99990.75;;;20.76;100.00
74905;BME280;63465;50.862;6.220;2024-02-21T10:25:14;99989.94;;;20.75;100.00
74905;BME280;63465;50.862;6.220;2024-02-21T10:27:39;99986.63;;;20.81;100.00
74905;BME280;63465;50.862;6.220;2024-02-21T10:30:13;99977.09;;;20.71;100.00
74905;BME280;63465;50.862;6.220;2024-02-21T10:32:52;99971.44;;;20.66;100.00
74905;BME280;63465;50.862;6.220;2024-02-21T10:35:33;99963.78;;;20.63;100.00
74905;BME280;63465;50.862;6.220;2024-02-21T10:37:59;99966.78;;;20.68;100.00
74905;BME280;63465;50.862;6.220;2024-02-21T10:40:28;99949.28;;;20.65;100.00
74905;BME280;63465;50.862;6.220;2024-02-21T10:42:59;99944.13;;;20.55;100.00
74905;BME280;63465;50.862;6.220;2024-02-21T10:45:33;99935.47;;;20.62;100.00
74905;BME280;63465;50.862;6.220;2024-02-21T10:48:11;99930.81;;;20.64;100.00
74905;BME280;63465;50.862;6.220;2024-02-21T10:51:12;99919.66;;;20.60;100.00
74905;BME280;63465;50.862;6.220;2024-02-21T10:54:11;99914.16;;;20.45;100.00
74905;BME280;63465;50.862;6.220;2024-02-21T10:56:39;99911.16;;;20.48;100.00
74905;BME280;63465;50.862;6.220;2024-02-21T10:59:07;99907.50;;;20.58;100.00
74905;BME280;63465;50.862;6.220;2024-02-21T11:01:33;99892.31;;;20.58;100.00
74905;BME280;63465;50.862;6.220;2024-02-21T11:04:08;99880.19;;;20.47;100.00
74905;BME280;63465;50.862;6.220;2024-02-21T11:06:36;99887.69;;;20.44;100.00
74905;BME280;63465;50.862;6.220;2024-02-21T11:09:03;99868.03;;;20.53;100.00
74905;BME280;63465;50.862;6.220;2024-02-21T11:11:29;99871.19;;;20.48;100.00
74905;BME280;63465;50.862;6.220;2024-02-21T11:14:08;99859.38;;;20.43;100.00
74905;BME280;63465;50.862;6.220;2024-02-21T11:16:38;99854.84;;;20.35;100.00
74905;BME280;63465;50.862;6.220;2024-02-21T11:19:25;99840.03;;;20.33;100.00
74905;BME280;63465;50.862;6.220;2024-02-21T11:21:51;99818.75;;;20.41;100.00
74905;BME280;63465;50.862;6.220;2024-02-21T11:24:33;99807.72;;;20.36;100.00
74905;BME280;63465;50.862;6.220;2024-02-21T11:27:14;99799.44;;;20.39;100.00
74905;BME280;63465;50.862;6.220;2024-02-21T11:29:46;99786.94;;;20.39;100.00
74905;BME280;63465;50.862;6.220;2024-02-21T11:32:16;99781.09;;;20.44;100.00
74905;BME280;63465;50.862;6.220;2024-02-21T11:35:02;99770.28;;;20.45;100.00
74905;BME280;63465;50.862;6.220;2024-02-21T11:37:30;99751.97;;;20.34;100.00
74905;BME280;63465;50.862;6.220;2024-02-21T11:39:58;99749.66;;;20.39;100.00
74905;BME280;63465;50.862;6.220;2024-02-21T11:42:27;99740.13;;;20.37;100.00
74905;BME280;63465;50.862;6.220;2024-02-21T11:44:53;99740.31;;;20.35;100.00
74905;BME280;63465;50.862;6.220;2024-02-21T11:47:22;99726.66;;;20.30;100.00
74905;BME280;63465;50.862;6.220;2024-02-21T11:49:48;99712.31;;;20.47;100.00
74905;BME280;63465;50.862;6.220;2024-02-21T11:52:15;99698.03;;;20.40;100.00
74905;BME280;63465;50.862;6.220;2024-02-21T11:54:41;99675.19;;;20.38;100.00
74905;BME280;63465;50.862;6.220;2024-02-21T11:57:07;99663.88;;;20.44;100.00
74905;BME280;63465;50.862;6.220;2024-02-21T11:59:33;99654.88;;;20.45;100.00
74905;BME280;63465;50.862;6.220;2024-02-21T12:02:00;99650.06;;;20.40;100.00
74905;BME280;63465;50.862;6.220;2024-02-21T12:04:26;99685.53;;;20.41;100.00
74905;BME280;63465;50.862;6.220;2024-02-21T12:06:52;99681.34;;;20.46;100.00
74905;BME280;63465;50.862;6.220;2024-02-21T12:09:18;99704.00;;;20.42;100.00
74905;BME280;63465;50.862;6.220;2024-02-21T12:11:44;99710.31;;;20.49;100.00
74905;BME280;63465;50.862;6.220;2024-02-21T12:14:16;99694.81;;;20.53;100.00
74905;BME280;63465;50.862;6.220;2024-02-21T12:19:09;99691.94;;;20.63;100.00
74905;BME280;63465;50.862;6.220;2024-02-21T12:21:34;99671.19;;;20.50;100.00
74905;BME280;63465;50.862;6.220;2024-02-21T12:24:31;99657.19;;;20.48;100.00
74905;BME280;63465;50.862;6.220;2024-02-21T12:26:57;99659.00;;;20.55;99.87
74905;BME280;63465;50.862;6.220;2024-02-21T12:29:24;99649.47;;;20.61;100.00
74905;BME280;63465;50.862;6.220;2024-02-21T12:31:50;99633.19;;;20.56;99.96
74905;BME280;63465;50.862;6.220;2024-02-21T12:34:16;99637.66;;;20.64;99.52
74905;BME280;63465;50.862;6.220;2024-02-21T12:36:43;99637.06;;;20.76;98.47
74905;BME280;63465;50.862;6.220;2024-02-21T12:39:09;99638.91;;;20.76;98.28
74905;BME280;63465;50.862;6.220;2024-02-21T12:41:38;99636.78;;;20.71;98.14
74905;BME280;63465;50.862;6.220;2024-02-21T12:44:09;99619.13;;;20.70;99.08
74905;BME280;63465;50.862;6.220;2024-02-21T12:46:36;99616.97;;;20.66;98.90
74905;BME280;63465;50.862;6.220;2024-02-21T12:49:02;99618.94;;;20.72;98.36
74905;BME280;63465;50.862;6.220;2024-02-21T12:51:28;99601.06;;;20.49;99.46
74905;BME280;63465;50.862;6.220;2024-02-21T12:53:54;99609.72;;;20.51;99.88
74905;BME280;63465;50.862;6.220;2024-02-21T12:56:20;99594.09;;;20.48;100.00
74905;BME280;63465;50.862;6.220;2024-02-21T12:58:45;99584.78;;;20.44;99.99
74905;BME280;63465;50.862;6.220;2024-02-21T13:01:11;99588.28;;;20.45;100.00
74905;BME280;63465;50.862;6.220;2024-02-21T13:03:36;99577.69;;;20.29;100.00
74905;BME280;63465;50.862;6.220;2024-02-21T13:06:01;99574.34;;;20.27;100.00
74905;BME280;63465;50.862;6.220;2024-02-21T13:08:27;99569.72;;;20.20;100.00
74905;BME280;63465;50.862;6.220;2024-02-21T13:10:52;99562.25;;;20.16;100.00
74905;BME280;63465;50.862;6.220;2024-02-21T13:13:17;99566.22;;;20.20;100.00
74905;BME280;63465;50.862;6.220;2024-02-21T13:15:43;99551.25;;;20.19;100.00
74905;BME280;63465;50.862;6.220;2024-02-21T13:18:09;99551.91;;;20.21;100.00
74905;BME280;63465;50.862;6.220;2024-02-21T13:20:35;99544.78;;;20.13;100.00
74905;BME280;63465;50.862;6.220;2024-02-21T13:23:00;99535.97;;;20.13;100.00
74905;BME280;63465;50.862;6.220;2024-02-21T13:25:26;99526.84;;;20.07;100.00
74905;BME280;63465;50.862;6.220;2024-02-21T13:27:51;99523.66;;;20.12;100.00
74905;BME280;63465;50.862;6.220;2024-02-21T13:30:16;99523.19;;;20.08;100.00
74905;BME280;63465;50.862;6.220;2024-02-21T13:32:43;99534.66;;;20.09;100.00
74905;BME280;63465;50.862;6.220;2024-02-21T13:35:08;99524.75;;;20.26;100.00
74905;BME280;63465;50.862;6.220;2024-02-21T13:37:34;99525.09;;;20.22;100.00
74905;BME280;63465;50.862;6.220;2024-02-21T13:40:00;99513.75;;;20.29;100.00
74905;BME280;63465;50.862;6.220;2024-02-21T13:42:25;99501.25;;;20.29;100.00
74905;BME280;63465;50.862;6.220;2024-02-21T13:44:53;99482.44;;;20.31;100.00
74905;BME280;63465;50.862;6.220;2024-02-21T13:47:18;99491.91;;;20.33;100.00
74905;BME280;63465;50.862;6.220;2024-02-21T13:49:43;99484.91;;;20.40;100.00
74905;BME280;63465;50.862;6.220;2024-02-21T13:52:08;99466.94;;;20.34;100.00
74905;BME280;63465;50.862;6.220;2024-02-21T13:54:34;99477.09;;;20.39;100.00
74905;BME280;63465;50.862;6.220;2024-02-21T13:57:00;99467.28;;;20.31;100.00
74905;BME280;63465;50.862;6.220;2024-02-21T13:59:26;99464.25;;;20.42;100.00
74905;BME280;63465;50.862;6.220;2024-02-21T14:01:51;99464.63;;;20.31;100.00
74905;BME280;63465;50.862;6.220;2024-02-21T14:04:17;99455.94;;;20.37;100.00
74905;BME280;63465;50.862;6.220;2024-02-21T14:06:42;99448.63;;;20.39;100.00
74905;BME280;63465;50.862;6.220;2024-02-21T14:09:09;99445.03;;;20.24;100.00
74905;BME280;63465;50.862;6.220;2024-02-21T14:11:34;99439.06;;;20.22;100.00
74905;BME280;63465;50.862;6.220;2024-02-21T14:14:00;99430.53;;;20.27;100.00
74905;BME280;63465;50.862;6.220;2024-02-21T14:16:25;99428.63;;;20.35;100.00
74905;BME280;63465;50.862;6.220;2024-02-21T14:18:51;99421.66;;;20.34;100.00
74905;BME280;63465;50.862;6.220;2024-02-21T14:21:16;99409.63;;;20.38;100.00
74905;BME280;63465;50.862;6.220;2024-02-21T14:23:41;99410.25;;;20.48;100.00
74905;BME280;63465;50.862;6.220;2024-02-21T14:26:06;99398.94;;;20.46;100.00
74905;BME280;63465;50.862;6.220;2024-02-21T14:28:32;99386.53;;;20.39;100.00
74905;BME280;63465;50.862;6.220;2024-02-21T14:30:59;99397.28;;;20.45;100.00
74905;BME280;63465;50.862;6.220;2024-02-21T14:33:28;99387.88;;;20.58;100.00
74905;BME280;63465;50.862;6.220;2024-02-21T14:35:55;99371.41;;;20.54;100.00
74905;BME280;63465;50.862;6.220;2024-02-21T14:38:20;99368.00;;;20.45;100.00
74905;BME280;63465;50.862;6.220;2024-02-21T14:40:45;99353.94;;;20.51;100.00
74905;BME280;63465;50.862;6.220;2024-02-21T14:43:11;99337.69;;;20.46;100.00
74905;BME280;63465;50.862;6.220;2024-02-21T14:45:36;99321.06;;;20.59;100.00
74905;BME280;63465;50.862;6.220;2024-02-21T14:48:03;99317.66;;;20.50;100.00
74905;BME280;63465;50.862;6.220;2024-02-21T14:50:29;99316.00;;;20.64;100.00
74905;BME280;63465;50.862;6.220;2024-02-21T14:52:54;99311.50;;;20.65;100.00
74905;BME280;63465;50.862;6.220;2024-02-21T14:55:19;99304.53;;;20.64;100.00
74905;BME280;63465;50.862;6.220;2024-02-21T14:57:45;99300.28;;;20.54;100.00
74905;BME280;63465;50.862;6.220;2024-02-21T15:00:10;99293.69;;;20.65;100.00
74905;BME280;63465;50.862;6.220;2024-02-21T15:02:36;99297.91;;;20.60;100.00
74905;BME280;63465;50.862;6.220;2024-02-21T15:05:02;99297.09;;;20.74;100.00
74905;BME280;63465;50.862;6.220;2024-02-21T15:07:28;99295.91;;;20.76;100.00
74905;BME280;63465;50.862;6.220;2024-02-21T15:09:54;99303.44;;;20.73;100.00
74905;BME280;63465;50.862;6.220;2024-02-21T15:12:19;99302.41;;;20.59;100.00
74905;BME280;63465;50.862;6.220;2024-02-21T15:14:44;99296.06;;;20.60;100.00
74905;BME280;63465;50.862;6.220;2024-02-21T15:17:10;99286.59;;;20.58;100.00
74905;BME280;63465;50.862;6.220;2024-02-21T15:19:36;99268.69;;;20.66;100.00
74905;BME280;63465;50.862;6.220;2024-02-21T15:22:03;99267.50;;;20.69;100.00
74905;BME280;63465;50.862;6.220;2024-02-21T15:24:29;99269.44;;;20.75;100.00
74905;BME280;63465;50.862;6.220;2024-02-21T15:26:54;99260.78;;;20.73;100.00
74905;BME280;63465;50.862;6.220;2024-02-21T15:29:19;99257.28;;;20.72;100.00
74905;BME280;63465;50.862;6.220;2024-02-21T15:31:45;99246.19;;;20.69;100.00
74905;BME280;63465;50.862;6.220;2024-02-21T15:34:13;99231.28;;;20.74;100.00
74905;BME280;63465;50.862;6.220;2024-02-21T15:36:41;99237.44;;;20.60;100.00
74905;BME280;63465;50.862;6.220;2024-02-21T15:39:07;99228.81;;;20.73;100.00
74905;BME280;63465;50.862;6.220;2024-02-21T15:41:33;99219.34;;;20.85;99.28
74905;BME280;63465;50.862;6.220;2024-02-21T15:43:58;99211.44;;;20.77;99.36
74905;BME280;63465;50.862;6.220;2024-02-21T15:46:24;99213.94;;;20.64;100.00
74905;BME280;63465;50.862;6.220;2024-02-21T15:48:50;99203.53;;;20.69;100.00
74905;BME280;63465;50.862;6.220;2024-02-21T15:51:19;99194.81;;;20.75;100.00
74905;BME280;63465;50.862;6.220;2024-02-21T15:53:45;99191.31;;;20.74;99.55
74905;BME280;63465;50.862;6.220;2024-02-21T15:56:10;99171.38;;;20.70;99.75
74905;BME280;63465;50.862;6.220;2024-02-21T15:58:38;99168.59;;;20.78;99.04
74905;BME280;63465;50.862;6.220;2024-02-21T16:01:03;99157.13;;;20.78;99.13
74905;BME280;63465;50.862;6.220;2024-02-21T16:03:29;99131.22;;;20.72;99.25
74905;BME280;63465;50.862;6.220;2024-02-21T16:05:56;99139.78;;;20.67;99.30
74905;BME280;63465;50.862;6.220;2024-02-21T16:08:22;99136.09;;;20.68;99.08
74905;BME280;63465;50.862;6.220;2024-02-21T16:10:48;99131.78;;;20.67;99.26
74905;BME280;63465;50.862;6.220;2024-02-21T16:13:13;99133.16;;;20.63;99.20
74905;BME280;63465;50.862;6.220;2024-02-21T16:15:38;99116.63;;;20.68;99.23
74905;BME280;63465;50.862;6.220;2024-02-21T16:18:04;99115.53;;;20.62;99.59
74905;BME280;63465;50.862;6.220;2024-02-21T16:20:30;99111.72;;;20.71;98.97
74905;BME280;63465;50.862;6.220;2024-02-21T16:22:55;99118.00;;;20.64;99.14
74905;BME280;63465;50.862;6.220;2024-02-21T16:25:24;99115.53;;;20.62;98.94
74905;BME280;63465;50.862;6.220;2024-02-21T16:27:50;99102.84;;;20.64;98.56
74905;BME280;63465;50.862;6.220;2024-02-21T16:30:15;99097.22;;;20.74;98.14
74905;BME280;63465;50.862;6.220;2024-02-21T16:32:42;99098.97;;;20.81;97.43
74905;BME280;63465;50.862;6.220;2024-02-21T16:35:08;99090.59;;;20.84;97.12
74905;BME280;63465;50.862;6.220;2024-02-21T16:37:33;99086.91;;;20.85;96.77
74905;BME280;63465;50.862;6.220;2024-02-21T16:39:59;99080.00;;;20.91;96.78
74905;BME280;63465;50.862;6.220;2024-02-21T16:42:25;99083.94;;;20.95;96.37
74905;BME280;63465;50.862;6.220;2024-02-21T16:44:50;99064.94;;;20.83;96.59
74905;BME280;63465;50.862;6.220;2024-02-21T16:47:16;99069.25;;;20.84;96.77
74905;BME280;63465;50.862;6.220;2024-02-21T16:49:42;99067.94;;;20.95;95.67
74905;BME280;63465;50.862;6.220;2024-02-21T16:52:07;99062.16;;;20.92;95.76
74905;BME280;63465;50.862;6.220;2024-02-21T16:54:34;99055.69;;;21.01;95.56
74905;BME280;63465;50.862;6.220;2024-02-21T16:56:59;99050.66;;;20.91;95.80
74905;BME280;63465;50.862;6.220;2024-02-21T16:59:25;99050.53;;;20.99;95.52
74905;BME280;63465;50.862;6.220;2024-02-21T17:01:50;99040.38;;;20.88;96.08
74905;BME280;63465;50.862;6.220;2024-02-21T17:04:16;99033.97;;;20.82;96.38
74905;BME280;63465;50.862;6.220;2024-02-21T17:06:42;99039.59;;;20.73;96.90
74905;BME280;63465;50.862;6.220;2024-02-21T17:09:07;99016.97;;;20.83;96.12
74905;BME280;63465;50.862;6.220;2024-02-21T17:11:34;99008.00;;;20.91;95.77
74905;BME280;63465;50.862;6.220;2024-02-21T17:14:01;99001.84;;;20.91;95.52
74905;BME280;63465;50.862;6.220;2024-02-21T17:16:26;99001.47;;;20.94;94.86
74905;BME280;63465;50.862;6.220;2024-02-21T17:18:51;98983.59;;;20.88;95.49
74905;BME280;63465;50.862;6.220;2024-02-21T17:21:17;98980.97;;;20.94;95.25
74905;BME280;63465;50.862;6.220;2024-02-21T17:23:42;98966.81;;;20.94;94.64
74905;BME280;63465;50.862;6.220;2024-02-21T17:26:08;98950.63;;;20.95;94.66
74905;BME280;63465;50.862;6.220;2024-02-21T17:28:33;98947.19;;;20.80;95.40
74905;BME280;63465;50.862;6.220;2024-02-21T17:30:59;98934.25;;;20.77;95.19
74905;BME280;63465;50.862;6.220;2024-02-21T17:33:24;98935.66;;;20.73;95.73
74905;BME280;63465;50.862;6.220;2024-02-21T17:35:50;98928.81;;;20.85;95.63
74905;BME280;63465;50.862;6.220;2024-02-21T17:38:15;98920.88;;;20.92;94.87
74905;BME280;63465;50.862;6.220;2024-02-21T17:40:43;98911.84;;;20.93;94.21
74905;BME280;63465;50.862;6.220;2024-02-21T17:43:08;98905.56;;;21.00;94.24
74905;BME280;63465;50.862;6.220;2024-02-21T17:45:35;98890.47;;;20.86;94.85
74905;BME280;63465;50.862;6.220;2024-02-21T17:48:00;98899.41;;;20.78;95.37
74905;BME280;63465;50.862;6.220;2024-02-21T17:50:26;98888.00;;;20.84;94.39
74905;BME280;63465;50.862;6.220;2024-02-21T17:52:51;98906.66;;;20.84;94.80
74905;BME280;63465;50.862;6.220;2024-02-21T17:55:16;98912.53;;;20.80;95.05
74905;BME280;63465;50.862;6.220;2024-02-21T17:57:42;98902.16;;;20.85;94.72
74905;BME280;63465;50.862;6.220;2024-02-21T18:00:10;98906.59;;;20.78;94.60
74905;BME280;63465;50.862;6.220;2024-02-21T18:02:37;98911.63;;;20.88;94.49
74905;BME280;63465;50.862;6.220;2024-02-21T18:05:02;98916.06;;;20.80;94.58
74905;BME280;63465;50.862;6.220;2024-02-21T18:07:29;98902.59;;;20.89;94.64
74905;BME280;63465;50.862;6.220;2024-02-21T18:09:55;98906.72;;;20.91;94.06
74905;BME280;63465;50.862;6.220;2024-02-21T18:12:20;98896.28;;;20.96;93.89
74905;BME280;63465;50.862;6.220;2024-02-21T18:14:46;98897.31;;;20.95;93.65
74905;BME280;63465;50.862;6.220;2024-02-21T18:17:11;98892.06;;;21.08;93.90
74905;BME280;63465;50.862;6.220;2024-02-21T18:19:36;98873.13;;;20.97;93.75
74905;BME280;63465;50.862;6.220;2024-02-21T18:22:02;98882.13;;;20.96;93.46
74905;BME280;63465;50.862;6.220;2024-02-21T18:24:27;98871.91;;;20.99;93.81
74905;BME280;63465;50.862;6.220;2024-02-21T18:26:53;98859.22;;;21.01;93.63
74905;BME280;63465;50.862;6.220;2024-02-21T18:29:18;98865.19;;;21.10;92.62
74905;BME280;63465;50.862;6.220;2024-02-21T18:31:43;98868.22;;;21.00;92.65
74905;BME280;63465;50.862;6.220;2024-02-21T18:34:09;98861.88;;;21.01;92.99
74905;BME280;63465;50.862;6.220;2024-02-21T18:36:36;98857.13;;;20.97;93.68
74905;BME280;63465;50.862;6.220;2024-02-21T18:39:02;98858.78;;;20.98;93.25
74905;BME280;63465;50.862;6.220;2024-02-21T18:41:27;98860.41;;;20.99;92.92
74905;BME280;63465;50.862;6.220;2024-02-21T18:43:52;98855.31;;;21.04;92.94
74905;BME280;63465;50.862;6.220;2024-02-21T18:46:18;98848.19;;;21.11;92.48
74905;BME280;63465;50.862;6.220;2024-02-21T18:48:43;98846.34;;;21.11;92.10
74905;BME280;63465;50.862;6.220;2024-02-21T18:51:14;98840.16;;;21.04;92.62
74905;BME280;63465;50.862;6.220;2024-02-21T18:53:40;98837.47;;;21.04;92.39
74905;BME280;63465;50.862;6.220;2024-02-21T18:56:07;98844.31;;;21.13;91.91
74905;BME280;63465;50.862;6.220;2024-02-21T18:58:32;98827.28;;;21.14;91.61
74905;BME280;63465;50.862;6.220;2024-02-21T19:00:58;98820.94;;;21.15;91.73
74905;BME280;63465;50.862;6.220;2024-02-21T19:03:24;98818.88;;;21.17;91.90
74905;BME280;63465;50.862;6.220;2024-02-21T19:05:49;98816.03;;;21.19;91.68
74905;BME280;63465;50.862;6.220;2024-02-21T19:08:14;98811.28;;;21.14;92.15
74905;BME280;63465;50.862;6.220;2024-02-21T19:10:40;98810.50;;;21.21;91.26
74905;BME280;63465;50.862;6.220;2024-02-21T19:13:05;98799.66;;;21.22;91.08
74905;BME280;63465;50.862;6.220;2024-02-21T19:15:31;98794.94;;;21.24;90.83
74905;BME280;63465;50.862;6.220;2024-02-21T19:17:57;98795.16;;;21.23;90.54
74905;BME280;63465;50.862;6.220;2024-02-21T19:20:23;98786.25;;;21.15;91.32
74905;BME280;63465;50.862;6.220;2024-02-21T19:22:49;98773.34;;;21.19;91.08
74905;BME280;63465;50.862;6.220;2024-02-21T19:25:15;98777.28;;;21.23;91.14
74905;BME280;63465;50.862;6.220;2024-02-21T19:27:43;98767.19;;;21.18;91.16
74905;BME280;63465;50.862;6.220;2024-02-21T19:30:09;98767.00;;;21.20;91.54
74905;BME280;63465;50.862;6.220;2024-02-21T19:32:37;98757.59;;;21.24;91.02
74905;BME280;63465;50.862;6.220;2024-02-21T19:35:03;98754.34;;;21.29;90.20
74905;BME280;63465;50.862;6.220;2024-02-21T19:37:30;98745.66;;;21.20;90.73
74905;BME280;63465;50.862;6.220;2024-02-21T19:39:56;98745.88;;;21.18;90.87
74905;BME280;63465;50.862;6.220;2024-02-21T19:42:21;98733.81;;;21.23;90.57
74905;BME280;63465;50.862;6.220;2024-02-21T19:44:46;98731.34;;;21.28;90.60
74905;BME280;63465;50.862;6.220;2024-02-21T19:47:12;98736.09;;;21.32;89.95
74905;BME280;63465;50.862;6.220;2024-02-21T19:49:38;98726.84;;;21.35;90.20
74905;BME280;63465;50.862;6.220;2024-02-21T19:52:03;98724.59;;;21.32;89.60
74905;BME280;63465;50.862;6.220;2024-02-21T19:54:29;98721.72;;;21.27;90.03
74905;BME280;63465;50.862;6.220;2024-02-21T19:56:54;98722.94;;;21.31;90.19
74905;BME280;63465;50.862;6.220;2024-02-21T19:59:19;98710.44;;;21.31;90.43
74905;BME280;63465;50.862;6.220;2024-02-21T20:01:45;98709.63;;;21.37;89.83
74905;BME280;63465;50.862;6.220;2024-02-21T20:04:11;98704.06;;;21.32;90.46
74905;BME280;63465;50.862;6.220;2024-02-21T20:06:38;98698.53;;;21.34;90.02